sensor_id;sensor_type;location;lat;lon;timestamp;temperature;humidity
13978;DHT22;7063;49.260;8.636;2023-08-17T01:15:52;25.00;99.90
13978;DHT22;7063;49.260;8.636;2023-08-17T01:18:30;19.50;99.90
13978;DHT22;7063;49.260;8.636;2023-08-17T01:20:57;19.40;99.90
13978;DHT22;7063;49.260;8.636;2023-08-17T01:23:23;19.30;99.90
13978;DHT22;7063;49.260;8.636;2023-08-17T01:25:49;19.30;99.90
13978;DHT22;7063;49.260;8.636;2023-08-17T01:28:15;19.30;99.90
13978;DHT22;7063;49.260;8.636;2023-08-17T01:33:16;19.30;99.90
13978;DHT22;7063;49.260;8.636;2023-08-17T01:36:05;19.20;99.90
13978;DHT22;7063;49.260;8.636;2023-08-17T01:38:32;19.30;99.90
13978;DHT22;7063;49.260;8.636;2023-08-17T01:41:01;19.20;99.90
13978;DHT22;7063;49.260;8.636;2023-08-17T01:43:28;19.20;99.90
13978;DHT22;7063;49.260;8.636;2023-08-17T01:45:54;19.20;99.90
13978;DHT22;7063;49.260;8.636;2023-08-17T01:48:20;19.20;99.90
13978;DHT22;7063;49.260;8.636;2023-08-17T01:50:45;19.20;99.90
13978;DHT22;7063;49.260;8.636;2023-08-17T01:53:11;19.20;99.90
13978;DHT22;7063;49.260;8.636;2023-08-17T01:55:38;19.20;99.90
13978;DHT22;7063;49.260;8.636;2023-08-17T01:58:03;19.10;99.90
13978;DHT22;7063;49.260;8.636;2023-08-17T02:00:29;19.10;99.90
13978;DHT22;7063;49.260;8.636;2023-08-17T02:02:54;19.10;99.90
13978;DHT22;7063;49.260;8.636;2023-08-17T02:05:20;19.10;99.90
13978;DHT22;7063;49.260;8.636;2023-08-17T02:07:46;19.10;99.90
13978;DHT22;7063;49.260;8.636;2023-08-17T02:10:11;19.10;99.90
13978;DHT22;7063;49.260;8.636;2023-08-17T02:12:37;19.00;99.90
13978;DHT22;7063;49.260;8.636;2023-08-17T02:15:02;19.00;99.90
13978;DHT22;7063;49.260;8.636;2023-08-17T02:17:28;19.00;99.90
13978;DHT22;7063;49.260;8.636;2023-08-17T02:19:54;19.00;99.90
13978;DHT22;7063;49.260;8.636;2023-08-17T08:57:11;19.00;99.90
13978;DHT22;7063;49.260;8.636;2023-08-17T08:59:38;23.60;99.90
13978;DHT22;7063;49.260;8.636;2023-08-17T09:02:14;23.70;99.90
13978;DHT22;7063;49.260;8.636;2023-08-17T09:04:41;24.00;99.90
13978;DHT22;7063;49.260;8.636;2023-08-17T12:36:27;24.40;99.90
13978;DHT22;7063;49.260;8.636;2023-08-17T12:38:52;26.00;98.50
13978;DHT22;7063;49.260;8.636;2023-08-17T12:41:18;25.90;97.40
13978;DHT22;7063;49.260;8.636;2023-08-17T12:43:44;26.00;97.80
13978;DHT22;7063;49.260;8.636;2023-08-17T12:46:09;26.00;96.60
13978;DHT22;7063;49.260;8.636;2023-08-17T12:48:37;26.20;96.50
13978;DHT22;7063;49.260;8.636;2023-08-17T12:51:03;26.40;96.50
13978;DHT22;7063;49.260;8.636;2023-08-17T12:53:29;26.50;94.20
13978;DHT22;7063;49.260;8.636;2023-08-17T12:55:55;26.70;93.10
13978;DHT22;7063;49.260;8.636;2023-08-17T12:58:21;27.30;93.50
13978;DHT22;7063;49.260;8.636;2023-08-17T13:00:46;27.60;86.80
13978;DHT22;7063;49.260;8.636;2023-08-17T13:03:12;27.90;81.40
13978;DHT22;7063;49.260;8.636;2023-08-17T13:05:37;28.00;83.00
13978;DHT22;7063;49.260;8.636;2023-08-17T13:08:05;27.70;79.80
13978;DHT22;7063;49.260;8.636;2023-08-17T13:10:31;27.80;80.90
13978;DHT22;7063;49.260;8.636;2023-08-17T13:12:56;27.80;80.30
13978;DHT22;7063;49.260;8.636;2023-08-17T13:15:24;27.80;80.10
13978;DHT22;7063;49.260;8.636;2023-08-17T13:17:50;27.90;79.70
13978;DHT22;7063;49.260;8.636;2023-08-17T13:20:16;27.60;78.40
13978;DHT22;7063;49.260;8.636;2023-08-17T13:22:41;27.40;81.50
13978;DHT22;7063;49.260;8.636;2023-08-17T13:25:07;27.20;82.90
13978;DHT22;7063;49.260;8.636;2023-08-17T13:27:32;27.00;85.70
13978;DHT22;7063;49.260;8.636;2023-08-17T13:29:58;26.90;85.20
13978;DHT22;7063;49.260;8.636;2023-08-17T13:32:24;26.80;85.90
13978;DHT22;7063;49.260;8.636;2023-08-17T13:34:50;27.10;86.60
13978;DHT22;7063;49.260;8.636;2023-08-17T13:37:16;27.30;85.20
13978;DHT22;7063;49.260;8.636;2023-08-17T13:39:43;27.50;85.80
13978;DHT22;7063;49.260;8.636;2023-08-17T13:42:08;27.50;82.70
13978;DHT22;7063;49.260;8.636;2023-08-17T13:44:34;27.50;80.60
13978;DHT22;7063;49.260;8.636;2023-08-17T13:46:59;27.50;79.10
13978;DHT22;7063;49.260;8.636;2023-08-17T13:49:25;27.70;80.10
13978;DHT22;7063;49.260;8.636;2023-08-17T13:51:50;27.70;80.90
13978;DHT22;7063;49.260;8.636;2023-08-17T13:54:16;27.70;77.90
13978;DHT22;7063;49.260;8.636;2023-08-17T13:56:42;27.90;76.90
13978;DHT22;7063;49.260;8.636;2023-08-17T13:59:07;27.90;76.60
13978;DHT22;7063;49.260;8.636;2023-08-17T14:01:33;27.70;77.10
13978;DHT22;7063;49.260;8.636;2023-08-17T14:03:59;27.60;77.30
13978;DHT22;7063;49.260;8.636;2023-08-17T14:06:25;27.70;76.70
13978;DHT22;7063;49.260;8.636;2023-08-17T14:08:51;27.70;77.80
13978;DHT22;7063;49.260;8.636;2023-08-17T14:11:17;28.00;79.30
13978;DHT22;7063;49.260;8.636;2023-08-17T23:43:46;28.10;76.00
13978;DHT22;7063;49.260;8.636;2023-08-17T23:46:12;22.70;99.90
